Flight Information

DEPARTURE
TONOPAH, NV
Elevation:
5429
Runways:
H1 - 48x48 - ASPH-G
11/29 - 6195x50 - ASPH-L
15/33 - 7158x80 - ASPH-E
CTAF:
123.000
DESTINATION
,
Elevation:
TPA:
1000 (est.)


6660.3 NM73° True-15° Var57° HDG

Flight Plan:
(click to file on line)

1. Type
2. Aircraft Identification
3. Aircraft Type / Special Equipment
4. True Airspeed
kts
5. Departure Airport
(ICAO code)
6. Arriving Airport
(ICAO code)
7. Cruising Altitude
ft
8. Alternate Airport
(ICAO code)
9. Route of Flight
10. Remarks


00:00:00 Departure ATIS: Destination ATIS:

Clearance Limit:
Route:
Altitude: Expect in minutes
Frequency:
Transponder: (7500 Hijack / 7600 Lost Comms / 7700 Emergency)


KTPH 251852Z AUTO 02006KT 1 3/4SM -SN BR BKN025 OVC031 M01/M03 A2950 RMK AO2 SLP001 P0000 T10111028
Time: 2021-01-25T18:52:00Z
1611602762
Winds: 20 @ 6 kts
Visibility: 1.75 sm
Clouds (AGL): BKN 2500
OVC 3100
Temperature: -1.1 C
Dew Point: -2.8 C
Pressure: 29.500984 in Hgbr


Notes:

Data extracted from FAA Digital Chart Supplement. Effective: 0901Z Thursday, Dec 31, 2020 to 0901Z Thursday, Jan 28, 2021
Current ATIS data is provided courtisy of PilotEdge.